Terminal Aerodrome Forecast
Issued by NWS Cleveland, OH

Home | Current Version | Previous Version | Graphics & Text | Print | Product List | Glossary On
Versions: 1 2 3 4 5 6 7 8 9 10 11 12 13 14 15 16
000
FTUS41 KCLE 271100
TAFCAK
TAF
KCAK 271130Z 2712/2812 32004KT P6SM FEW040
     FM271500 27006KT P6SM SCT040
     FM272300 23003KT P6SM SKC=

USA.gov is the U.S. government's official web portal to all federal, state and local government web resources and services.